sensor_id;sensor_type;location;lat;lon;timestamp;temperature;humidity
74488;DHT22;63019;51.080;13.642;2023-11-18T00:00:26;4.80;99.90
74488;DHT22;63019;51.080;13.642;2023-11-18T00:01:33;4.80;99.90
74488;DHT22;63019;51.080;13.642;2023-11-18T00:02:35;4.80;99.90
74488;DHT22;63019;51.080;13.642;2023-11-18T00:03:37;4.80;99.90
74488;DHT22;63019;51.080;13.642;2023-11-18T00:04:40;4.80;99.90
74488;DHT22;63019;51.080;13.642;2023-11-18T00:05:42;4.80;99.90
74488;DHT22;63019;51.080;13.642;2023-11-18T00:06:44;4.80;99.90
74488;DHT22;63019;51.080;13.642;2023-11-18T00:07:46;4.80;99.90
74488;DHT22;63019;51.080;13.642;2023-11-18T00:08:48;4.80;99.90
74488;DHT22;63019;51.080;13.642;2023-11-18T00:09:51;4.70;99.90
74488;DHT22;63019;51.080;13.642;2023-11-18T00:10:53;4.70;99.90
74488;DHT22;63019;51.080;13.642;2023-11-18T00:11:55;4.70;99.90
74488;DHT22;63019;51.080;13.642;2023-11-18T00:12:57;4.70;99.90
74488;DHT22;63019;51.080;13.642;2023-11-18T00:14:00;4.70;99.90
74488;DHT22;63019;51.080;13.642;2023-11-18T00:15:03;4.70;99.90
74488;DHT22;63019;51.080;13.642;2023-11-18T00:16:06;4.70;99.90
74488;DHT22;63019;51.080;13.642;2023-11-18T00:17:08;4.60;99.90
74488;DHT22;63019;51.080;13.642;2023-11-18T00:18:12;4.60;99.90
74488;DHT22;63019;51.080;13.642;2023-11-18T00:19:13;4.60;99.90
74488;DHT22;63019;51.080;13.642;2023-11-18T00:20:15;4.60;99.90
74488;DHT22;63019;51.080;13.642;2023-11-18T00:21:17;4.60;99.90
74488;DHT22;63019;51.080;13.642;2023-11-18T00:22:19;4.60;99.90
74488;DHT22;63019;51.080;13.642;2023-11-18T00:23:21;4.60;99.90
74488;DHT22;63019;51.080;13.642;2023-11-18T00:24:23;4.60;99.90
74488;DHT22;63019;51.080;13.642;2023-11-18T00:25:26;4.60;99.90
74488;DHT22;63019;51.080;13.642;2023-11-18T00:26:28;4.60;99.90
74488;DHT22;63019;51.080;13.642;2023-11-18T00:27:31;4.60;99.90
74488;DHT22;63019;51.080;13.642;2023-11-18T00:28:33;4.60;99.90
74488;DHT22;63019;51.080;13.642;2023-11-18T00:29:35;4.60;99.90
74488;DHT22;63019;51.080;13.642;2023-11-18T00:30:37;4.60;99.90
74488;DHT22;63019;51.080;13.642;2023-11-18T00:31:39;4.50;99.90
74488;DHT22;63019;51.080;13.642;2023-11-18T00:32:41;4.50;99.90
74488;DHT22;63019;51.080;13.642;2023-11-18T00:33:43;4.50;99.90
74488;DHT22;63019;51.080;13.642;2023-11-18T00:34:45;4.50;99.90
74488;DHT22;63019;51.080;13.642;2023-11-18T00:35:46;4.40;99.90
74488;DHT22;63019;51.080;13.642;2023-11-18T00:36:48;4.40;99.90
74488;DHT22;63019;51.080;13.642;2023-11-18T00:37:50;4.40;99.90
74488;DHT22;63019;51.080;13.642;2023-11-18T00:38:52;4.40;99.90
74488;DHT22;63019;51.080;13.642;2023-11-18T00:39:54;4.40;99.90
74488;DHT22;63019;51.080;13.642;2023-11-18T00:40:56;4.40;99.90
74488;DHT22;63019;51.080;13.642;2023-11-18T00:41:58;4.50;99.90
74488;DHT22;63019;51.080;13.642;2023-11-18T00:43:00;4.50;99.90
74488;DHT22;63019;51.080;13.642;2023-11-18T00:44:02;4.40;99.90
74488;DHT22;63019;51.080;13.642;2023-11-18T00:45:05;4.50;99.90
74488;DHT22;63019;51.080;13.642;2023-11-18T00:46:07;4.50;99.90
74488;DHT22;63019;51.080;13.642;2023-11-18T00:47:09;4.40;99.90
74488;DHT22;63019;51.080;13.642;2023-11-18T00:48:11;4.40;99.90
74488;DHT22;63019;51.080;13.642;2023-11-18T00:49:13;4.40;99.90
74488;DHT22;63019;51.080;13.642;2023-11-18T00:50:15;4.40;99.90
74488;DHT22;63019;51.080;13.642;2023-11-18T00:51:17;4.40;99.90
74488;DHT22;63019;51.080;13.642;2023-11-18T00:52:20;4.30;99.90
74488;DHT22;63019;51.080;13.642;2023-11-18T00:53:22;4.40;99.90
74488;DHT22;63019;51.080;13.642;2023-11-18T00:54:24;4.30;99.90
74488;DHT22;63019;51.080;13.642;2023-11-18T00:55:27;4.30;99.90
74488;DHT22;63019;51.080;13.642;2023-11-18T00:56:29;4.40;99.90
74488;DHT22;63019;51.080;13.642;2023-11-18T00:57:30;4.30;99.90
74488;DHT22;63019;51.080;13.642;2023-11-18T00:58:32;4.30;99.90
74488;DHT22;63019;51.080;13.642;2023-11-18T00:59:38;4.30;99.90
74488;DHT22;63019;51.080;13.642;2023-11-18T01:00:42;4.30;99.90
74488;DHT22;63019;51.080;13.642;2023-11-18T01:01:44;4.30;99.90
74488;DHT22;63019;51.080;13.642;2023-11-18T01:02:46;4.30;99.90
74488;DHT22;63019;51.080;13.642;2023-11-18T01:03:50;4.30;99.90
74488;DHT22;63019;51.080;13.642;2023-11-18T01:04:52;4.40;99.90
74488;DHT22;63019;51.080;13.642;2023-11-18T01:05:54;4.40;99.90
74488;DHT22;63019;51.080;13.642;2023-11-18T01:06:55;4.30;99.90
74488;DHT22;63019;51.080;13.642;2023-11-18T01:07:59;4.30;99.90
74488;DHT22;63019;51.080;13.642;2023-11-18T01:09:01;4.30;99.90
74488;DHT22;63019;51.080;13.642;2023-11-18T01:10:04;4.30;99.90
74488;DHT22;63019;51.080;13.642;2023-11-18T01:11:07;4.30;99.90
74488;DHT22;63019;51.080;13.642;2023-11-18T01:12:10;4.40;99.90
74488;DHT22;63019;51.080;13.642;2023-11-18T01:13:13;4.40;99.90
74488;DHT22;63019;51.080;13.642;2023-11-18T01:14:15;4.40;99.90
74488;DHT22;63019;51.080;13.642;2023-11-18T01:15:18;4.40;99.90
74488;DHT22;63019;51.080;13.642;2023-11-18T01:16:20;4.40;99.90
74488;DHT22;63019;51.080;13.642;2023-11-18T01:17:23;4.30;99.90
74488;DHT22;63019;51.080;13.642;2023-11-18T01:18:25;4.40;99.90
74488;DHT22;63019;51.080;13.642;2023-11-18T01:19:27;4.40;99.90
74488;DHT22;63019;51.080;13.642;2023-11-18T01:20:30;4.40;99.90
74488;DHT22;63019;51.080;13.642;2023-11-18T01:21:31;4.40;99.90
74488;DHT22;63019;51.080;13.642;2023-11-18T01:22:33;4.40;99.90
74488;DHT22;63019;51.080;13.642;2023-11-18T01:23:36;4.40;99.90
74488;DHT22;63019;51.080;13.642;2023-11-18T01:24:38;4.40;99.90
74488;DHT22;63019;51.080;13.642;2023-11-18T01:25:40;4.40;99.90
74488;DHT22;63019;51.080;13.642;2023-11-18T01:26:43;4.40;99.90
74488;DHT22;63019;51.080;13.642;2023-11-18T01:27:45;4.40;99.90
74488;DHT22;63019;51.080;13.642;2023-11-18T01:28:48;4.40;99.90
74488;DHT22;63019;51.080;13.642;2023-11-18T01:29:50;4.40;99.90
74488;DHT22;63019;51.080;13.642;2023-11-18T01:30:52;4.40;99.90
74488;DHT22;63019;51.080;13.642;2023-11-18T01:31:54;4.40;99.90
74488;DHT22;63019;51.080;13.642;2023-11-18T01:32:58;4.40;99.90
74488;DHT22;63019;51.080;13.642;2023-11-18T01:34:02;4.40;99.90
74488;DHT22;63019;51.080;13.642;2023-11-18T01:35:06;4.40;99.90
74488;DHT22;63019;51.080;13.642;2023-11-18T01:36:09;4.30;99.90
74488;DHT22;63019;51.080;13.642;2023-11-18T01:37:11;4.30;99.90
74488;DHT22;63019;51.080;13.642;2023-11-18T01:38:13;4.30;99.90
74488;DHT22;63019;51.080;13.642;2023-11-18T01:39:16;4.30;99.90
74488;DHT22;63019;51.080;13.642;2023-11-18T01:40:19;4.40;99.90
74488;DHT22;63019;51.080;13.642;2023-11-18T01:41:21;4.40;99.90
74488;DHT22;63019;51.080;13.642;2023-11-18T01:42:23;4.30;99.90
74488;DHT22;63019;51.080;13.642;2023-11-18T01:43:26;4.30;99.90
74488;DHT22;63019;51.080;13.642;2023-11-18T01:44:27;4.30;99.90
74488;DHT22;63019;51.080;13.642;2023-11-18T01:45:32;4.30;99.90
74488;DHT22;63019;51.080;13.642;2023-11-18T01:46:35;4.30;99.90
74488;DHT22;63019;51.080;13.642;2023-11-18T01:47:38;4.40;99.90
74488;DHT22;63019;51.080;13.642;2023-11-18T01:48:41;4.30;99.90
74488;DHT22;63019;51.080;13.642;2023-11-18T01:49:43;4.40;99.90
74488;DHT22;63019;51.080;13.642;2023-11-18T01:50:51;4.30;99.90
74488;DHT22;63019;51.080;13.642;2023-11-18T01:51:53;4.40;99.90
74488;DHT22;63019;51.080;13.642;2023-11-18T01:52:56;4.40;99.90
74488;DHT22;63019;51.080;13.642;2023-11-18T01:53:59;4.30;99.90
74488;DHT22;63019;51.080;13.642;2023-11-18T01:55:02;4.40;99.90
74488;DHT22;63019;51.080;13.642;2023-11-18T01:56:08;4.40;99.90
74488;DHT22;63019;51.080;13.642;2023-11-18T01:57:10;4.30;99.90
74488;DHT22;63019;51.080;13.642;2023-11-18T01:58:12;4.30;99.90
74488;DHT22;63019;51.080;13.642;2023-11-18T01:59:17;4.30;99.90
74488;DHT22;63019;51.080;13.642;2023-11-18T02:00:22;4.30;99.90
74488;DHT22;63019;51.080;13.642;2023-11-18T02:01:27;4.30;99.90
74488;DHT22;63019;51.080;13.642;2023-11-18T02:02:29;4.30;99.90
74488;DHT22;63019;51.080;13.642;2023-11-18T02:03:31;4.30;99.90
74488;DHT22;63019;51.080;13.642;2023-11-18T02:04:34;4.30;99.90
74488;DHT22;63019;51.080;13.642;2023-11-18T02:05:36;4.30;99.90
74488;DHT22;63019;51.080;13.642;2023-11-18T02:06:38;4.30;99.90
74488;DHT22;63019;51.080;13.642;2023-11-18T02:07:40;4.30;99.90
74488;DHT22;63019;51.080;13.642;2023-11-18T02:08:42;4.40;99.90
74488;DHT22;63019;51.080;13.642;2023-11-18T02:09:45;4.40;99.90
74488;DHT22;63019;51.080;13.642;2023-11-18T02:10:49;4.40;99.90
74488;DHT22;63019;51.080;13.642;2023-11-18T02:14:21;4.40;99.90
74488;DHT22;63019;51.080;13.642;2023-11-18T02:15:28;4.40;99.90
74488;DHT22;63019;51.080;13.642;2023-11-18T02:16:33;4.40;99.90
74488;DHT22;63019;51.080;13.642;2023-11-18T02:17:38;4.40;99.90
74488;DHT22;63019;51.080;13.642;2023-11-18T02:18:42;4.40;99.90
74488;DHT22;63019;51.080;13.642;2023-11-18T02:19:45;4.30;99.90
74488;DHT22;63019;51.080;13.642;2023-11-18T02:20:47;4.30;99.90
74488;DHT22;63019;51.080;13.642;2023-11-18T02:21:52;4.30;99.90
74488;DHT22;63019;51.080;13.642;2023-11-18T02:22:56;4.30;99.90
74488;DHT22;63019;51.080;13.642;2023-11-18T02:23:58;4.30;99.90
74488;DHT22;63019;51.080;13.642;2023-11-18T02:25:01;4.30;99.90
74488;DHT22;63019;51.080;13.642;2023-11-18T02:26:08;4.30;99.90
74488;DHT22;63019;51.080;13.642;2023-11-18T02:27:11;4.30;99.90
74488;DHT22;63019;51.080;13.642;2023-11-18T02:28:13;4.30;99.90
74488;DHT22;63019;51.080;13.642;2023-11-18T02:29:15;4.30;99.90
74488;DHT22;63019;51.080;13.642;2023-11-18T02:30:17;4.30;99.90
74488;DHT22;63019;51.080;13.642;2023-11-18T02:31:27;4.30;99.90
74488;DHT22;63019;51.080;13.642;2023-11-18T02:32:39;4.30;99.90
74488;DHT22;63019;51.080;13.642;2023-11-18T02:33:57;4.30;99.90
74488;DHT22;63019;51.080;13.642;2023-11-18T02:35:09;4.30;99.90
74488;DHT22;63019;51.080;13.642;2023-11-18T02:36:31;4.30;99.90
74488;DHT22;63019;51.080;13.642;2023-11-18T02:37:46;4.30;99.90
74488;DHT22;63019;51.080;13.642;2023-11-18T02:38:50;4.30;99.90
74488;DHT22;63019;51.080;13.642;2023-11-18T02:40:01;4.30;99.90
74488;DHT22;63019;51.080;13.642;2023-11-18T02:41:11;4.30;99.90
74488;DHT22;63019;51.080;13.642;2023-11-18T02:42:14;4.30;99.90
74488;DHT22;63019;51.080;13.642;2023-11-18T02:43:17;4.30;99.90
74488;DHT22;63019;51.080;13.642;2023-11-18T02:44:22;4.30;99.90
74488;DHT22;63019;51.080;13.642;2023-11-18T02:45:25;4.30;99.90
74488;DHT22;63019;51.080;13.642;2023-11-18T02:46:28;4.30;99.90
74488;DHT22;63019;51.080;13.642;2023-11-18T02:47:30;4.30;99.90
74488;DHT22;63019;51.080;13.642;2023-11-18T02:48:32;4.30;99.90
74488;DHT22;63019;51.080;13.642;2023-11-18T02:49:35;4.30;99.90
74488;DHT22;63019;51.080;13.642;2023-11-18T02:50:37;4.30;99.90
74488;DHT22;63019;51.080;13.642;2023-11-18T02:51:40;4.30;99.90
74488;DHT22;63019;51.080;13.642;2023-11-18T02:52:41;4.30;99.90
74488;DHT22;63019;51.080;13.642;2023-11-18T02:53:44;4.30;99.90
74488;DHT22;63019;51.080;13.642;2023-11-18T02:54:46;4.30;99.90
74488;DHT22;63019;51.080;13.642;2023-11-18T02:55:48;4.30;99.90
74488;DHT22;63019;51.080;13.642;2023-11-18T02:56:53;4.30;99.90
74488;DHT22;63019;51.080;13.642;2023-11-18T02:57:56;4.30;99.90
74488;DHT22;63019;51.080;13.642;2023-11-18T02:58:58;4.30;99.90
74488;DHT22;63019;51.080;13.642;2023-11-18T03:00:06;4.30;99.90
74488;DHT22;63019;51.080;13.642;2023-11-18T03:01:13;4.30;99.90
74488;DHT22;63019;51.080;13.642;2023-11-18T03:02:15;4.30;99.90
74488;DHT22;63019;51.080;13.642;2023-11-18T03:03:17;4.30;99.90
74488;DHT22;63019;51.080;13.642;2023-11-18T03:04:19;4.20;99.90
74488;DHT22;63019;51.080;13.642;2023-11-18T03:05:21;4.30;99.90
74488;DHT22;63019;51.080;13.642;2023-11-18T03:06:23;4.20;99.90
74488;DHT22;63019;51.080;13.642;2023-11-18T03:07:26;4.30;99.90
74488;DHT22;63019;51.080;13.642;2023-11-18T03:08:30;4.30;99.90
74488;DHT22;63019;51.080;13.642;2023-11-18T03:09:33;4.30;99.90
74488;DHT22;63019;51.080;13.642;2023-11-18T03:10:36;4.30;99.90
74488;DHT22;63019;51.080;13.642;2023-11-18T03:11:39;4.30;99.90
74488;DHT22;63019;51.080;13.642;2023-11-18T03:12:40;4.30;99.90
74488;DHT22;63019;51.080;13.642;2023-11-18T03:13:42;4.30;99.90
74488;DHT22;63019;51.080;13.642;2023-11-18T03:14:44;4.30;99.90
74488;DHT22;63019;51.080;13.642;2023-11-18T03:15:46;4.30;99.90
74488;DHT22;63019;51.080;13.642;2023-11-18T03:16:49;4.40;99.90
74488;DHT22;63019;51.080;13.642;2023-11-18T03:17:52;4.40;99.90
74488;DHT22;63019;51.080;13.642;2023-11-18T03:18:54;4.30;99.90
74488;DHT22;63019;51.080;13.642;2023-11-18T03:19:56;4.40;99.90
74488;DHT22;63019;51.080;13.642;2023-11-18T03:20:58;4.30;99.90
74488;DHT22;63019;51.080;13.642;2023-11-18T03:22:02;4.30;99.90
74488;DHT22;63019;51.080;13.642;2023-11-18T03:23:04;4.30;99.90
74488;DHT22;63019;51.080;13.642;2023-11-18T03:24:09;4.30;99.90
74488;DHT22;63019;51.080;13.642;2023-11-18T03:25:11;4.30;99.90
74488;DHT22;63019;51.080;13.642;2023-11-18T03:26:14;4.30;99.90
74488;DHT22;63019;51.080;13.642;2023-11-18T03:27:15;4.20;99.90
74488;DHT22;63019;51.080;13.642;2023-11-18T03:28:17;4.20;99.90
74488;DHT22;63019;51.080;13.642;2023-11-18T03:29:19;4.20;99.90
74488;DHT22;63019;51.080;13.642;2023-11-18T03:30:21;4.20;99.90
74488;DHT22;63019;51.080;13.642;2023-11-18T03:31:23;4.20;99.90
74488;DHT22;63019;51.080;13.642;2023-11-18T03:32:24;4.20;99.90
74488;DHT22;63019;51.080;13.642;2023-11-18T03:33:26;4.20;99.90
74488;DHT22;63019;51.080;13.642;2023-11-18T03:34:28;4.20;99.90
74488;DHT22;63019;51.080;13.642;2023-11-18T03:35:30;4.10;99.90
74488;DHT22;63019;51.080;13.642;2023-11-18T03:36:33;4.20;99.90
74488;DHT22;63019;51.080;13.642;2023-11-18T03:37:35;4.20;99.90
74488;DHT22;63019;51.080;13.642;2023-11-18T03:38:40;4.10;99.90
74488;DHT22;63019;51.080;13.642;2023-11-18T03:39:42;4.10;99.90
74488;DHT22;63019;51.080;13.642;2023-11-18T03:40:44;4.10;99.90
74488;DHT22;63019;51.080;13.642;2023-11-18T03:41:46;4.10;99.90
74488;DHT22;63019;51.080;13.642;2023-11-18T03:42:48;4.10;99.90
74488;DHT22;63019;51.080;13.642;2023-11-18T03:43:50;4.10;99.90
74488;DHT22;63019;51.080;13.642;2023-11-18T03:44:52;4.00;99.90
74488;DHT22;63019;51.080;13.642;2023-11-18T03:45:54;4.10;99.90
74488;DHT22;63019;51.080;13.642;2023-11-18T03:46:58;4.10;99.90
74488;DHT22;63019;51.080;13.642;2023-11-18T03:48:00;4.10;99.90
74488;DHT22;63019;51.080;13.642;2023-11-18T03:49:02;4.10;99.90
74488;DHT22;63019;51.080;13.642;2023-11-18T03:50:05;4.10;99.90
74488;DHT22;63019;51.080;13.642;2023-11-18T03:51:07;4.10;99.90
74488;DHT22;63019;51.080;13.642;2023-11-18T03:52:09;4.10;99.90
74488;DHT22;63019;51.080;13.642;2023-11-18T03:53:11;4.10;99.90
74488;DHT22;63019;51.080;13.642;2023-11-18T03:54:13;4.00;99.90
74488;DHT22;63019;51.080;13.642;2023-11-18T03:55:15;4.00;99.90
74488;DHT22;63019;51.080;13.642;2023-11-18T03:56:17;4.00;99.90
74488;DHT22;63019;51.080;13.642;2023-11-18T03:57:22;4.00;99.90
74488;DHT22;63019;51.080;13.642;2023-11-18T03:58:24;4.00;99.90
74488;DHT22;63019;51.080;13.642;2023-11-18T03:59:26;4.00;99.90
74488;DHT22;63019;51.080;13.642;2023-11-18T04:00:28;4.00;99.90
74488;DHT22;63019;51.080;13.642;2023-11-18T04:01:31;3.90;99.90
74488;DHT22;63019;51.080;13.642;2023-11-18T04:02:34;3.90;99.90
74488;DHT22;63019;51.080;13.642;2023-11-18T04:03:37;3.90;99.90
74488;DHT22;63019;51.080;13.642;2023-11-18T04:04:39;3.90;99.90
74488;DHT22;63019;51.080;13.642;2023-11-18T04:05:41;3.90;99.90
74488;DHT22;63019;51.080;13.642;2023-11-18T04:06:44;3.90;99.90
74488;DHT22;63019;51.080;13.642;2023-11-18T04:07:48;3.90;99.90
74488;DHT22;63019;51.080;13.642;2023-11-18T04:08:50;3.90;99.90
74488;DHT22;63019;51.080;13.642;2023-11-18T04:09:52;3.90;99.90
74488;DHT22;63019;51.080;13.642;2023-11-18T04:10:55;3.90;99.90
74488;DHT22;63019;51.080;13.642;2023-11-18T04:11:57;3.90;99.90
74488;DHT22;63019;51.080;13.642;2023-11-18T04:13:00;3.90;99.90
74488;DHT22;63019;51.080;13.642;2023-11-18T04:14:02;3.80;99.90
74488;DHT22;63019;51.080;13.642;2023-11-18T04:15:06;3.80;99.90
74488;DHT22;63019;51.080;13.642;2023-11-18T04:16:13;3.80;99.90
74488;DHT22;63019;51.080;13.642;2023-11-18T04:17:15;3.80;99.90
74488;DHT22;63019;51.080;13.642;2023-11-18T04:18:17;3.80;99.90
74488;DHT22;63019;51.080;13.642;2023-11-18T04:19:19;3.80;99.90
74488;DHT22;63019;51.080;13.642;2023-11-18T04:20:21;3.80;99.90
74488;DHT22;63019;51.080;13.642;2023-11-18T04:21:23;3.80;99.90
74488;DHT22;63019;51.080;13.642;2023-11-18T04:22:24;3.80;99.90
74488;DHT22;63019;51.080;13.642;2023-11-18T04:23:26;3.80;99.90
74488;DHT22;63019;51.080;13.642;2023-11-18T04:24:29;3.80;99.90
74488;DHT22;63019;51.080;13.642;2023-11-18T04:25:31;3.80;99.90
74488;DHT22;63019;51.080;13.642;2023-11-18T04:26:33;3.80;99.90
74488;DHT22;63019;51.080;13.642;2023-11-18T04:27:35;3.90;99.90
74488;DHT22;63019;51.080;13.642;2023-11-18T04:28:37;3.90;99.90
74488;DHT22;63019;51.080;13.642;2023-11-18T04:29:39;3.90;99.90
74488;DHT22;63019;51.080;13.642;2023-11-18T04:30:41;3.90;99.90
74488;DHT22;63019;51.080;13.642;2023-11-18T04:31:44;3.90;99.90
74488;DHT22;63019;51.080;13.642;2023-11-18T04:32:46;3.90;99.90
74488;DHT22;63019;51.080;13.642;2023-11-18T04:33:48;3.90;99.90
74488;DHT22;63019;51.080;13.642;2023-11-18T04:34:50;4.00;99.90
74488;DHT22;63019;51.080;13.642;2023-11-18T04:35:53;4.00;99.90
74488;DHT22;63019;51.080;13.642;2023-11-18T04:36:54;3.90;99.90
74488;DHT22;63019;51.080;13.642;2023-11-18T04:37:56;4.00;99.90
74488;DHT22;63019;51.080;13.642;2023-11-18T04:38:58;4.00;99.90
74488;DHT22;63019;51.080;13.642;2023-11-18T04:40:01;4.00;99.90
74488;DHT22;63019;51.080;13.642;2023-11-18T04:41:04;4.00;99.90
74488;DHT22;63019;51.080;13.642;2023-11-18T04:42:06;4.00;99.90
74488;DHT22;63019;51.080;13.642;2023-11-18T04:43:08;4.00;99.90
74488;DHT22;63019;51.080;13.642;2023-11-18T04:44:12;4.00;99.90
74488;DHT22;63019;51.080;13.642;2023-11-18T04:45:15;4.00;99.90
74488;DHT22;63019;51.080;13.642;2023-11-18T04:46:17;4.10;99.90
74488;DHT22;63019;51.080;13.642;2023-11-18T04:47:19;4.10;99.90
74488;DHT22;63019;51.080;13.642;2023-11-18T04:48:21;4.00;99.90
74488;DHT22;63019;51.080;13.642;2023-11-18T04:49:23;4.10;99.90
74488;DHT22;63019;51.080;13.642;2023-11-18T04:50:25;4.10;99.90
74488;DHT22;63019;51.080;13.642;2023-11-18T04:51:27;4.10;99.90
74488;DHT22;63019;51.080;13.642;2023-11-18T04:52:29;4.10;99.90
74488;DHT22;63019;51.080;13.642;2023-11-18T04:53:34;4.10;99.90
74488;DHT22;63019;51.080;13.642;2023-11-18T04:54:36;4.10;99.90
74488;DHT22;63019;51.080;13.642;2023-11-18T04:55:38;4.10;99.90
74488;DHT22;63019;51.080;13.642;2023-11-18T04:56:40;4.10;99.90
74488;DHT22;63019;51.080;13.642;2023-11-18T04:57:42;4.10;99.90
74488;DHT22;63019;51.080;13.642;2023-11-18T04:58:46;4.10;99.90
74488;DHT22;63019;51.080;13.642;2023-11-18T04:59:49;4.10;99.90
74488;DHT22;63019;51.080;13.642;2023-11-18T05:00:51;4.20;99.90
74488;DHT22;63019;51.080;13.642;2023-11-18T05:01:53;4.20;99.90
74488;DHT22;63019;51.080;13.642;2023-11-18T05:02:55;4.20;99.90
74488;DHT22;63019;51.080;13.642;2023-11-18T05:03:57;4.20;99.90
74488;DHT22;63019;51.080;13.642;2023-11-18T05:04:59;4.20;99.90
74488;DHT22;63019;51.080;13.642;2023-11-18T05:06:01;4.20;99.90
74488;DHT22;63019;51.080;13.642;2023-11-18T05:07:03;4.20;99.90
74488;DHT22;63019;51.080;13.642;2023-11-18T05:08:06;4.20;99.90
74488;DHT22;63019;51.080;13.642;2023-11-18T05:09:08;4.20;99.90
74488;DHT22;63019;51.080;13.642;2023-11-18T05:10:10;4.20;99.90
74488;DHT22;63019;51.080;13.642;2023-11-18T05:11:13;4.20;99.90
74488;DHT22;63019;51.080;13.642;2023-11-18T05:12:15;4.20;99.90
74488;DHT22;63019;51.080;13.642;2023-11-18T05:13:17;4.30;99.90
74488;DHT22;63019;51.080;13.642;2023-11-18T05:14:20;4.20;99.90
74488;DHT22;63019;51.080;13.642;2023-11-18T05:15:22;4.30;99.90
74488;DHT22;63019;51.080;13.642;2023-11-18T05:16:27;4.30;99.90
74488;DHT22;63019;51.080;13.642;2023-11-18T05:17:29;4.30;99.90
74488;DHT22;63019;51.080;13.642;2023-11-18T05:18:32;4.30;99.90
74488;DHT22;63019;51.080;13.642;2023-11-18T05:19:37;4.20;99.90
74488;DHT22;63019;51.080;13.642;2023-11-18T05:20:48;4.20;99.90
74488;DHT22;63019;51.080;13.642;2023-11-18T05:21:50;4.20;99.90
74488;DHT22;63019;51.080;13.642;2023-11-18T05:22:52;4.20;99.90
74488;DHT22;63019;51.080;13.642;2023-11-18T05:23:54;4.20;99.90
74488;DHT22;63019;51.080;13.642;2023-11-18T05:24:55;4.20;99.90
74488;DHT22;63019;51.080;13.642;2023-11-18T05:25:57;4.20;99.90
74488;DHT22;63019;51.080;13.642;2023-11-18T05:27:03;4.20;99.90
74488;DHT22;63019;51.080;13.642;2023-11-18T05:28:05;4.20;99.90
74488;DHT22;63019;51.080;13.642;2023-11-18T05:29:10;4.20;99.90
74488;DHT22;63019;51.080;13.642;2023-11-18T05:30:13;4.20;99.90
74488;DHT22;63019;51.080;13.642;2023-11-18T05:31:15;4.20;99.90
74488;DHT22;63019;51.080;13.642;2023-11-18T05:32:17;4.20;99.90
74488;DHT22;63019;51.080;13.642;2023-11-18T05:33:19;4.20;99.90
74488;DHT22;63019;51.080;13.642;2023-11-18T05:34:22;4.20;99.90
74488;DHT22;63019;51.080;13.642;2023-11-18T05:35:24;4.10;99.90
74488;DHT22;63019;51.080;13.642;2023-11-18T05:36:29;4.10;99.90
74488;DHT22;63019;51.080;13.642;2023-11-18T05:37:38;4.20;99.90
74488;DHT22;63019;51.080;13.642;2023-11-18T05:38:43;4.20;99.90
74488;DHT22;63019;51.080;13.642;2023-11-18T05:39:44;4.20;99.90
74488;DHT22;63019;51.080;13.642;2023-11-18T05:40:50;4.20;99.90
74488;DHT22;63019;51.080;13.642;2023-11-18T05:42:03;4.20;99.90
74488;DHT22;63019;51.080;13.642;2023-11-18T05:43:07;4.20;99.90
74488;DHT22;63019;51.080;13.642;2023-11-18T05:44:17;4.20;99.90
74488;DHT22;63019;51.080;13.642;2023-11-18T05:45:21;4.20;99.90
74488;DHT22;63019;51.080;13.642;2023-11-18T05:46:29;4.20;99.90
74488;DHT22;63019;51.080;13.642;2023-11-18T05:47:32;4.20;99.90
74488;DHT22;63019;51.080;13.642;2023-11-18T05:48:34;4.30;99.90
74488;DHT22;63019;51.080;13.642;2023-11-18T05:49:36;4.20;99.90
74488;DHT22;63019;51.080;13.642;2023-11-18T05:50:37;4.20;99.90
74488;DHT22;63019;51.080;13.642;2023-11-18T05:51:40;4.30;99.90
74488;DHT22;63019;51.080;13.642;2023-11-18T05:52:44;4.30;99.90
74488;DHT22;63019;51.080;13.642;2023-11-18T05:53:46;4.30;99.90
74488;DHT22;63019;51.080;13.642;2023-11-18T05:54:49;4.30;99.90
74488;DHT22;63019;51.080;13.642;2023-11-18T05:55:50;4.30;99.90
74488;DHT22;63019;51.080;13.642;2023-11-18T05:56:53;4.30;99.90
74488;DHT22;63019;51.080;13.642;2023-11-18T05:57:59;4.20;99.90
74488;DHT22;63019;51.080;13.642;2023-11-18T05:59:01;4.30;99.90
74488;DHT22;63019;51.080;13.642;2023-11-18T06:00:05;4.20;99.90
74488;DHT22;63019;51.080;13.642;2023-11-18T06:01:07;4.30;99.90
74488;DHT22;63019;51.080;13.642;2023-11-18T06:02:10;4.30;99.90
74488;DHT22;63019;51.080;13.642;2023-11-18T06:03:19;4.30;99.90
74488;DHT22;63019;51.080;13.642;2023-11-18T06:04:21;4.30;99.90
74488;DHT22;63019;51.080;13.642;2023-11-18T06:05:23;4.30;99.90
74488;DHT22;63019;51.080;13.642;2023-11-18T06:06:28;4.20;99.90
74488;DHT22;63019;51.080;13.642;2023-11-18T06:07:29;4.30;99.90
74488;DHT22;63019;51.080;13.642;2023-11-18T06:08:32;4.30;99.90
74488;DHT22;63019;51.080;13.642;2023-11-18T06:09:34;4.30;99.90
74488;DHT22;63019;51.080;13.642;2023-11-18T06:10:36;4.20;99.90
74488;DHT22;63019;51.080;13.642;2023-11-18T06:11:40;4.30;99.90
74488;DHT22;63019;51.080;13.642;2023-11-18T06:12:42;4.30;99.90
74488;DHT22;63019;51.080;13.642;2023-11-18T06:13:49;4.30;99.90
74488;DHT22;63019;51.080;13.642;2023-11-18T06:14:52;4.20;99.90
74488;DHT22;63019;51.080;13.642;2023-11-18T06:15:54;4.20;99.90
74488;DHT22;63019;51.080;13.642;2023-11-18T06:16:57;4.20;99.90
74488;DHT22;63019;51.080;13.642;2023-11-18T06:18:01;4.20;99.90
74488;DHT22;63019;51.080;13.642;2023-11-18T06:19:03;4.20;99.90
74488;DHT22;63019;51.080;13.642;2023-11-18T06:20:07;4.20;99.90
74488;DHT22;63019;51.080;13.642;2023-11-18T06:21:13;4.20;99.90
74488;DHT22;63019;51.080;13.642;2023-11-18T06:22:16;4.20;99.90
74488;DHT22;63019;51.080;13.642;2023-11-18T06:23:17;4.20;99.90
74488;DHT22;63019;51.080;13.642;2023-11-18T06:24:20;4.20;99.90
74488;DHT22;63019;51.080;13.642;2023-11-18T06:25:23;4.20;99.90
74488;DHT22;63019;51.080;13.642;2023-11-18T06:26:27;4.20;99.90
74488;DHT22;63019;51.080;13.642;2023-11-18T06:27:30;4.20;99.90
74488;DHT22;63019;51.080;13.642;2023-11-18T06:28:32;4.20;99.90
74488;DHT22;63019;51.080;13.642;2023-11-18T06:29:35;4.20;99.90
74488;DHT22;63019;51.080;13.642;2023-11-18T06:30:37;4.20;99.90
74488;DHT22;63019;51.080;13.642;2023-11-18T06:31:40;4.30;99.90
74488;DHT22;63019;51.080;13.642;2023-11-18T06:32:42;4.30;99.90
74488;DHT22;63019;51.080;13.642;2023-11-18T06:33:45;4.30;99.90
74488;DHT22;63019;51.080;13.642;2023-11-18T06:34:47;4.30;99.90
74488;DHT22;63019;51.080;13.642;2023-11-18T06:35:51;4.30;99.90
74488;DHT22;63019;51.080;13.642;2023-11-18T06:36:55;4.30;99.90
74488;DHT22;63019;51.080;13.642;2023-11-18T06:37:57;4.20;99.90
74488;DHT22;63019;51.080;13.642;2023-11-18T06:39:00;4.20;99.90
74488;DHT22;63019;51.080;13.642;2023-11-18T06:40:02;4.20;99.90